Terminal Aerodrome Forecast
Issued by NWS

Home | Current Version | Previous Version | Text Only | Print | Product List | Glossary Off
Versions: 1 2 3 4 5 6 7 8 9 10 11 12 13 14

000
FTUS43 KMPX 220520
TAFAXN
TAF
KAXN 220520Z 2206/2306 28007KT P6SM BKN150
     FM221600 31011KT P6SM BKN060
     FM230300 33009KT P6SM BKN020 OVC040=

USA.gov is the U.S. government's official web portal to all federal, state and local government web resources and services.